Time;durP1;ratioP1;P1;durP2;ratioP2;P2;SDS_P1;SDS_P2;PMS_P1;PMS_P2;Temp;Humidity;BMP_temperature;BMP_pressure;BME280_temperature;BME280_humidity;BME280_pressure;Samples;Min_cycle;Max_cycle;Signal;HPM_P1;HPM_P2
2022/01/16 00:04:27;;;;;;;34.70;12.80;;;;;;;;;;5021012;28;20049;-63
2022/01/16 00:06:54;;;;;;;34.92;13.10;;;;;;;;;;5032723;28;20063;-61
2022/01/16 00:09:21;;;;;;;34.47;13.02;;;;;;;;;;5033252;28;20477;-63
2022/01/16 00:11:49;;;;;;;35.25;12.90;;;;;;;;;;5032791;28;20429;-62
2022/01/16 00:14:18;;;;;;;35.33;14.15;;;;;;;;;;5032835;28;20079;-63
2022/01/16 00:16:45;;;;;;;32.50;12.85;;;;;;;;;;5032595;28;20049;-63
2022/01/16 00:19:12;;;;;;;35.17;12.75;;;;;;;;;;5032822;28;20041;-63
2022/01/16 00:21:41;;;;;;;31.15;13.52;;;;;;;;;;5032711;28;20049;-63
2022/01/16 00:24:09;;;;;;;40.10;13.73;;;;;;;;;;5032724;28;20046;-64
2022/01/16 00:26:37;;;;;;;31.75;12.73;;;;;;;;;;5032376;28;20049;-61
2022/01/16 00:29:07;;;;;;;37.30;14.68;;;;;;;;;;5032397;28;20059;-62
2022/01/16 00:31:37;;;;;;;32.53;12.43;;;;;;;;;;5032417;28;20046;-65
2022/01/16 00:34:04;;;;;;;31.17;11.77;;;;;;;;;;5032633;28;20049;-63
2022/01/16 00:36:31;;;;;;;37.35;13.88;;;;;;;;;;5032395;28;20410;-64
2022/01/16 00:38:58;;;;;;;33.75;13.25;;;;;;;;;;5031908;28;20414;-64
2022/01/16 00:41:26;;;;;;;32.10;13.25;;;;;;;;;;5032328;28;20108;-62
2022/01/16 00:43:54;;;;;;;36.78;13.82;;;;;;;;;;5032339;28;20486;-62
2022/01/16 00:46:22;;;;;;;32.03;12.77;;;;;;;;;;5032303;28;20461;-62
2022/01/16 00:48:50;;;;;;;34.05;12.93;;;;;;;;;;5032000;28;20064;-63
2022/01/16 00:51:18;;;;;;;31.27;14.38;;;;;;;;;;5032188;28;20050;-62
2022/01/16 00:53:45;;;;;;;27.92;12.15;;;;;;;;;;5032563;28;20398;-62
2022/01/16 00:56:12;;;;;;;35.40;13.65;;;;;;;;;;5032231;28;20051;-61
2022/01/16 00:58:39;;;;;;;37.25;13.32;;;;;;;;;;5031829;28;20046;-62
2022/01/16 01:01:06;;;;;;;34.63;13.15;;;;;;;;;;5032517;28;20053;-64
2022/01/16 01:03:33;;;;;;;34.10;13.63;;;;;;;;;;5032149;28;20045;-62
2022/01/16 01:06:02;;;;;;;29.70;12.52;;;;;;;;;;5032606;28;20558;-63
2022/01/16 01:08:30;;;;;;;35.90;13.63;;;;;;;;;;5031592;28;20051;-62
2022/01/16 01:10:58;;;;;;;33.35;12.63;;;;;;;;;;5032124;28;20516;-62
2022/01/16 01:13:33;;;;;;;31.05;12.90;;;;;;;;;;5031998;28;20502;-62
2022/01/16 01:16:03;;;;;;;34.38;13.30;;;;;;;;;;5032152;28;20122;-62
2022/01/16 01:18:31;;;;;;;34.97;13.50;;;;;;;;;;5031917;28;20569;-61
2022/01/16 01:20:59;;;;;;;35.28;12.25;;;;;;;;;;5031912;28;20045;-61
2022/01/16 01:23:28;;;;;;;31.08;11.57;;;;;;;;;;5032007;28;20516;-62
2022/01/16 01:25:54;;;;;;;31.52;12.15;;;;;;;;;;5031711;28;20093;-61
2022/01/16 01:28:21;;;;;;;28.40;12.25;;;;;;;;;;5031683;28;20045;-63
2022/01/16 01:30:48;;;;;;;32.90;12.27;;;;;;;;;;5032057;28;20057;-63
2022/01/16 01:33:19;;;;;;;30.92;12.60;;;;;;;;;;5031969;28;20073;-62
2022/01/16 01:35:46;;;;;;;28.90;10.77;;;;;;;;;;5032065;28;20160;-62
2022/01/16 01:38:17;;;;;;;28.35;11.70;;;;;;;;;;5031281;28;20057;-62
2022/01/16 01:40:47;;;;;;;28.23;11.25;;;;;;;;;;5031789;28;20050;-62
2022/01/16 01:51:31;;;;;;;31.40;12.10;;;;;;;;;;5035634;28;20187;-62
2022/01/16 01:53:59;;;;;;;27.58;11.90;;;;;;;;;;5035805;28;20072;-62
2022/01/16 01:56:28;;;;;;;29.33;11.30;;;;;;;;;;5035521;28;20156;-61
2022/01/16 01:58:57;;;;;;;26.65;10.35;;;;;;;;;;5035128;28;20042;-62
2022/01/16 02:01:25;;;;;;;28.02;11.23;;;;;;;;;;5035276;28;20060;-62
2022/01/16 02:03:52;;;;;;;30.27;10.93;;;;;;;;;;5035307;28;20058;-62
2022/01/16 02:06:21;;;;;;;30.50;11.38;;;;;;;;;;5035195;28;20419;-62
2022/01/16 02:08:51;;;;;;;27.45;11.60;;;;;;;;;;5034981;28;20509;-62
2022/01/16 02:11:22;;;;;;;30.63;11.07;;;;;;;;;;5035173;28;20056;-62
2022/01/16 02:13:56;;;;;;;33.15;12.10;;;;;;;;;;5035416;28;20410;-63
2022/01/16 02:34:29;;;;;;;25.55;10.45;;;;;;;;;;5024410;28;20437;-63
2022/01/16 02:36:17;;;;;;;29.88;10.82;;;;;;;;;;5034486;28;20053;-62
2022/01/16 02:38:47;;;;;;;28.50;11.30;;;;;;;;;;5034955;28;20531;-62
2022/01/16 02:41:14;;;;;;;25.48;9.88;;;;;;;;;;5034922;28;20046;-62
2022/01/16 02:43:46;;;;;;;27.60;10.35;;;;;;;;;;5034575;28;20132;-62
2022/01/16 02:48:58;;;;;;;24.98;9.57;;;;;;;;;;4995455;28;20097;-64
2022/01/16 02:51:28;;;;;;;24.73;9.27;;;;;;;;;;4995274;28;20050;-64
2022/01/16 02:53:57;;;;;;;25.17;9.73;;;;;;;;;;4995596;28;20047;-64
2022/01/16 02:56:24;;;;;;;23.13;10.10;;;;;;;;;;4995670;28;20547;-65
2022/01/16 02:58:52;;;;;;;24.95;11.40;;;;;;;;;;4995219;28;20129;-62
2022/01/16 03:01:20;;;;;;;24.45;9.52;;;;;;;;;;4995165;28;20403;-64
2022/01/16 03:03:47;;;;;;;26.77;10.05;;;;;;;;;;4995571;28;20392;-62
2022/01/16 03:06:14;;;;;;;26.27;9.70;;;;;;;;;;4995196;28;20542;-62
2022/01/16 03:08:41;;;;;;;24.55;9.38;;;;;;;;;;4995127;28;20411;-62
2022/01/16 03:11:21;;;;;;;26.27;10.43;;;;;;;;;;4995192;28;20527;-62
2022/01/16 03:13:49;;;;;;;24.67;9.35;;;;;;;;;;4995537;28;20057;-62
2022/01/16 03:16:17;;;;;;;28.35;10.45;;;;;;;;;;4995302;28;20066;-62
2022/01/16 03:24:14;;;;;;;28.48;10.60;;;;;;;;;;4995283;28;20076;-62
2022/01/16 03:26:42;;;;;;;27.55;11.10;;;;;;;;;;4994804;28;20134;-62
2022/01/16 03:29:09;;;;;;;28.08;11.02;;;;;;;;;;4994940;28;20051;-62
2022/01/16 03:31:36;;;;;;;23.15;9.63;;;;;;;;;;4994831;28;20054;-62
2022/01/16 03:34:03;;;;;;;23.08;9.15;;;;;;;;;;4994837;28;20133;-62
2022/01/16 03:36:30;;;;;;;22.50;9.00;;;;;;;;;;4994884;28;20042;-62
2022/01/16 03:38:57;;;;;;;25.83;9.80;;;;;;;;;;4994871;28;20046;-62
2022/01/16 03:41:27;;;;;;;29.10;10.85;;;;;;;;;;4994903;28;20137;-62
2022/01/16 03:43:58;;;;;;;23.67;10.48;;;;;;;;;;4994922;28;20105;-62
2022/01/16 03:46:29;;;;;;;26.85;10.18;;;;;;;;;;4994946;28;20057;-63
2022/01/16 03:48:56;;;;;;;28.98;11.68;;;;;;;;;;4994720;28;20054;-62
2022/01/16 03:51:23;;;;;;;25.55;10.02;;;;;;;;;;4994454;28;20065;-62
2022/01/16 03:53:50;;;;;;;22.95;9.30;;;;;;;;;;4994510;28;20054;-63
2022/01/16 03:56:17;;;;;;;23.92;9.20;;;;;;;;;;4994184;28;20137;-62
2022/01/16 03:58:44;;;;;;;22.65;9.00;;;;;;;;;;4994327;28;20496;-62
2022/01/16 04:01:13;;;;;;;24.02;9.43;;;;;;;;;;4994272;28;20061;-62
2022/01/16 04:03:40;;;;;;;27.13;10.88;;;;;;;;;;4994366;28;20419;-63
2022/01/16 04:06:06;;;;;;;24.38;10.30;;;;;;;;;;4994473;28;20058;-63
2022/01/16 04:08:33;;;;;;;26.05;10.02;;;;;;;;;;4993986;28;20057;-62
2022/01/16 04:11:01;;;;;;;22.58;9.85;;;;;;;;;;4993989;28;20137;-63
2022/01/16 04:13:30;;;;;;;28.17;10.55;;;;;;;;;;4993217;28;20058;-63
2022/01/16 04:15:57;;;;;;;25.83;10.52;;;;;;;;;;4994172;28;20160;-63
2022/01/16 04:18:25;;;;;;;25.52;11.15;;;;;;;;;;4993830;28;20050;-62
2022/01/16 04:20:52;;;;;;;30.15;12.15;;;;;;;;;;4993826;28;20073;-62
2022/01/16 04:23:19;;;;;;;28.45;11.80;;;;;;;;;;4993874;28;20490;-62
2022/01/16 04:25:46;;;;;;;22.23;10.95;;;;;;;;;;4994448;28;20484;-62
2022/01/16 04:28:13;;;;;;;25.73;10.82;;;;;;;;;;4993604;28;20054;-62
2022/01/16 04:30:40;;;;;;;28.77;11.95;;;;;;;;;;4993945;28;20384;-62
2022/01/16 04:33:07;;;;;;;27.67;11.27;;;;;;;;;;4993575;28;20530;-62
2022/01/16 04:35:35;;;;;;;25.42;11.20;;;;;;;;;;4993875;28;20137;-62
2022/01/16 04:38:02;;;;;;;25.65;11.65;;;;;;;;;;4993321;28;20065;-63
2022/01/16 04:40:30;;;;;;;26.63;12.48;;;;;;;;;;4993437;28;20046;-63
2022/01/16 04:45:42;;;;;;;28.40;12.48;;;;;;;;;;4993491;28;20142;-62
2022/01/16 04:48:09;;;;;;;26.42;11.32;;;;;;;;;;4992853;28;20062;-62
2022/01/16 04:50:37;;;;;;;27.85;12.77;;;;;;;;;;4993197;28;20054;-62
2022/01/16 04:53:04;;;;;;;26.58;11.48;;;;;;;;;;4993199;28;20050;-62
2022/01/16 04:55:31;;;;;;;31.27;12.90;;;;;;;;;;4993190;28;20051;-63
2022/01/16 04:57:58;;;;;;;25.95;12.02;;;;;;;;;;4993107;28;20054;-62
2022/01/16 05:00:25;;;;;;;32.58;12.77;;;;;;;;;;4993488;28;20133;-63
2022/01/16 05:02:52;;;;;;;28.23;11.77;;;;;;;;;;4992907;28;20050;-62
2022/01/16 05:05:19;;;;;;;31.48;13.63;;;;;;;;;;4993277;28;20056;-63
2022/01/16 05:07:47;;;;;;;28.20;12.75;;;;;;;;;;4992631;28;20050;-63
2022/01/16 05:10:14;;;;;;;29.15;14.07;;;;;;;;;;4993241;28;20069;-63
2022/01/16 05:12:45;;;;;;;32.55;13.18;;;;;;;;;;4992677;28;20491;-63
2022/01/16 05:17:57;;;;;;;27.42;13.82;;;;;;;;;;4992523;28;20052;-63
2022/01/16 05:20:24;;;;;;;29.80;13.45;;;;;;;;;;4993148;28;20062;-63
2022/01/16 05:22:52;;;;;;;29.75;14.05;;;;;;;;;;4992709;28;20508;-64
2022/01/16 05:25:19;;;;;;;32.90;14.70;;;;;;;;;;4992727;28;20415;-64
2022/01/16 05:27:46;;;;;;;33.67;14.77;;;;;;;;;;4992521;28;20057;-64
2022/01/16 05:30:13;;;;;;;30.73;14.80;;;;;;;;;;4992702;28;20046;-63
2022/01/16 05:32:40;;;;;;;33.58;14.13;;;;;;;;;;4992561;28;20050;-64
2022/01/16 05:35:09;;;;;;;35.17;16.02;;;;;;;;;;4992739;28;20475;-64
2022/01/16 05:37:36;;;;;;;30.17;14.18;;;;;;;;;;4992457;28;20050;-64
2022/01/16 05:40:05;;;;;;;27.17;13.98;;;;;;;;;;4992556;28;20054;-65
2022/01/16 05:42:33;;;;;;;31.27;15.32;;;;;;;;;;4992661;28;20062;-64
2022/01/16 05:45:00;;;;;;;33.83;16.08;;;;;;;;;;4992528;28;20125;-64
2022/01/16 05:47:27;;;;;;;29.17;15.68;;;;;;;;;;4992259;28;20054;-64
2022/01/16 05:49:54;;;;;;;34.45;16.95;;;;;;;;;;4992498;28;20559;-64
2022/01/16 05:52:21;;;;;;;31.83;18.13;;;;;;;;;;4992455;28;20090;-64
2022/01/16 05:54:48;;;;;;;35.92;17.55;;;;;;;;;;4992439;28;20376;-64
2022/01/16 05:57:16;;;;;;;36.85;19.13;;;;;;;;;;4992213;28;20407;-64
2022/01/16 05:59:43;;;;;;;34.88;17.70;;;;;;;;;;4992790;28;20051;-64
2022/01/16 06:02:11;;;;;;;30.80;17.63;;;;;;;;;;4993079;28;20124;-64
2022/01/16 06:04:38;;;;;;;35.45;17.55;;;;;;;;;;4992753;28;20129;-64
2022/01/16 06:07:06;;;;;;;35.08;16.65;;;;;;;;;;4992318;28;20060;-64
2022/01/16 06:09:33;;;;;;;33.72;17.58;;;;;;;;;;4992621;28;20590;-64
2022/01/16 06:12:00;;;;;;;33.40;17.92;;;;;;;;;;4992483;28;20050;-64
2022/01/16 06:14:28;;;;;;;34.85;17.55;;;;;;;;;;4992330;28;20050;-64
2022/01/16 06:16:55;;;;;;;34.30;16.85;;;;;;;;;;4992238;28;20407;-64
2022/01/16 06:19:22;;;;;;;33.22;16.25;;;;;;;;;;4992507;28;20050;-64
2022/01/16 06:21:49;;;;;;;34.05;17.38;;;;;;;;;;4992327;28;20054;-65
2022/01/16 06:24:17;;;;;;;38.08;19.27;;;;;;;;;;4992364;28;20468;-65
2022/01/16 06:26:44;;;;;;;35.58;17.23;;;;;;;;;;4992083;28;20046;-64
2022/01/16 06:29:11;;;;;;;38.97;18.27;;;;;;;;;;4992175;28;20408;-64
2022/01/16 06:31:39;;;;;;;39.65;19.00;;;;;;;;;;4992234;28;20046;-64
2022/01/16 06:34:06;;;;;;;40.03;20.02;;;;;;;;;;4991886;28;20050;-64
2022/01/16 06:36:34;;;;;;;34.05;18.35;;;;;;;;;;4994138;28;20068;-64
2022/01/16 06:39:03;;;;;;;38.00;19.15;;;;;;;;;;4995562;28;20050;-64
2022/01/16 06:41:30;;;;;;;38.28;19.13;;;;;;;;;;4996002;28;20050;-64
2022/01/16 06:43:57;;;;;;;36.80;18.48;;;;;;;;;;4995749;28;20054;-64
2022/01/16 06:46:24;;;;;;;37.42;18.42;;;;;;;;;;4995444;28;20081;-65
2022/01/16 06:48:53;;;;;;;37.63;19.95;;;;;;;;;;4995142;28;20050;-65
2022/01/16 06:51:21;;;;;;;36.60;17.63;;;;;;;;;;4995463;28;20056;-64
2022/01/16 06:53:48;;;;;;;34.60;18.55;;;;;;;;;;4995358;28;20491;-64
2022/01/16 06:56:16;;;;;;;36.72;20.55;;;;;;;;;;4995382;28;20492;-64
2022/01/16 06:58:43;;;;;;;34.03;17.60;;;;;;;;;;4995056;28;20058;-64
2022/01/16 07:01:10;;;;;;;35.70;18.85;;;;;;;;;;4995155;28;20061;-65
2022/01/16 07:03:37;;;;;;;31.67;17.52;;;;;;;;;;4995397;28;20062;-64
2022/01/16 07:06:06;;;;;;;32.83;17.95;;;;;;;;;;4995170;28;20046;-64
2022/01/16 07:08:33;;;;;;;37.55;19.88;;;;;;;;;;4995115;28;20558;-64
2022/01/16 07:11:02;;;;;;;38.72;19.10;;;;;;;;;;4995267;28;20050;-64
2022/01/16 07:13:30;;;;;;;37.05;19.52;;;;;;;;;;4995734;28;20381;-64
2022/01/16 07:15:57;;;;;;;38.50;19.33;;;;;;;;;;4994918;28;20061;-64
2022/01/16 07:18:24;;;;;;;40.05;19.42;;;;;;;;;;4994764;28;20057;-64
2022/01/16 07:20:51;;;;;;;39.38;19.42;;;;;;;;;;4995185;28;20046;-63
2022/01/16 07:23:19;;;;;;;38.58;19.65;;;;;;;;;;4995475;28;20058;-63
2022/01/16 07:25:47;;;;;;;36.05;18.75;;;;;;;;;;4995019;28;20058;-64
2022/01/16 07:28:15;;;;;;;37.42;17.77;;;;;;;;;;4995221;28;20101;-64
2022/01/16 07:30:43;;;;;;;41.75;19.88;;;;;;;;;;4994836;28;20503;-64
2022/01/16 07:33:10;;;;;;;38.20;20.00;;;;;;;;;;4994347;28;20058;-65
2022/01/16 07:35:39;;;;;;;39.40;20.05;;;;;;;;;;4994699;28;20141;-64
2022/01/16 07:38:07;;;;;;;35.40;18.75;;;;;;;;;;4994070;28;20073;-64
2022/01/16 07:40:36;;;;;;;38.45;19.88;;;;;;;;;;4994139;28;20043;-64
2022/01/16 07:43:03;;;;;;;37.53;18.35;;;;;;;;;;4994595;28;20050;-64
2022/01/16 07:45:30;;;;;;;38.75;19.92;;;;;;;;;;4993972;28;20047;-64
2022/01/16 07:47:57;;;;;;;40.65;20.30;;;;;;;;;;4993873;28;20046;-64
2022/01/16 07:50:25;;;;;;;37.85;20.48;;;;;;;;;;4994255;28;20050;-64
2022/01/16 07:52:51;;;;;;;37.47;19.55;;;;;;;;;;4993914;28;20057;-64
2022/01/16 07:55:22;;;;;;;35.15;18.20;;;;;;;;;;4994236;28;20061;-66
2022/01/16 07:57:51;;;;;;;37.90;19.30;;;;;;;;;;4994292;28;20056;-64
2022/01/16 08:00:18;;;;;;;34.72;19.13;;;;;;;;;;4994512;28;20153;-65
2022/01/16 08:02:45;;;;;;;38.35;20.20;;;;;;;;;;4994326;28;20142;-65
2022/01/16 08:05:12;;;;;;;36.47;20.88;;;;;;;;;;4994366;28;20057;-65
2022/01/16 08:07:39;;;;;;;36.30;18.48;;;;;;;;;;4993868;28;20082;-64
2022/01/16 08:10:07;;;;;;;34.63;19.38;;;;;;;;;;4993981;28;20069;-64
2022/01/16 08:12:34;;;;;;;38.13;20.38;;;;;;;;;;4993813;28;20053;-64
2022/01/16 08:15:04;;;;;;;36.65;18.65;;;;;;;;;;4994073;28;20070;-64
2022/01/16 08:17:31;;;;;;;39.58;18.92;;;;;;;;;;4993473;28;20050;-64
2022/01/16 08:19:58;;;;;;;38.05;19.70;;;;;;;;;;4993648;28;20046;-64
2022/01/16 08:22:25;;;;;;;37.63;18.98;;;;;;;;;;4993447;28;20406;-64
2022/01/16 08:24:52;;;;;;;34.92;18.80;;;;;;;;;;4993608;28;20050;-64
2022/01/16 08:27:19;;;;;;;35.80;18.73;;;;;;;;;;4993391;28;20503;-64
2022/01/16 08:29:46;;;;;;;36.65;19.88;;;;;;;;;;4993472;28;20069;-64
2022/01/16 08:32:14;;;;;;;34.60;18.95;;;;;;;;;;4993295;28;20065;-63
2022/01/16 08:34:41;;;;;;;38.35;19.70;;;;;;;;;;4993321;28;20514;-64
2022/01/16 08:37:08;;;;;;;36.13;18.80;;;;;;;;;;4992973;28;20054;-64
2022/01/16 08:39:35;;;;;;;37.28;18.92;;;;;;;;;;4993569;28;20050;-64
2022/01/16 08:42:02;;;;;;;36.75;18.75;;;;;;;;;;4993374;28;20062;-64
2022/01/16 08:44:29;;;;;;;36.72;18.55;;;;;;;;;;4993306;28;20058;-63
2022/01/16 08:46:56;;;;;;;36.55;17.88;;;;;;;;;;4992937;28;20060;-65
2022/01/16 08:49:25;;;;;;;32.70;17.92;;;;;;;;;;4993661;28;20490;-64
2022/01/16 08:51:52;;;;;;;37.92;19.17;;;;;;;;;;5014817;23;21822;-79
2022/01/16 08:54:18;;;;;;;36.33;19.00;;;;;;;;;;5015898;28;20046;-77
2022/01/16 08:56:45;;;;;;;35.53;18.58;;;;;;;;;;5018117;28;20412;-78
2022/01/16 08:59:12;;;;;;;32.60;17.40;;;;;;;;;;5017814;28;20049;-79
2022/01/16 09:01:38;;;;;;;39.30;19.92;;;;;;;;;;5016246;28;20050;-78
2022/01/16 09:04:05;;;;;;;35.20;18.27;;;;;;;;;;5013491;28;20466;-78
2022/01/16 09:06:33;;;;;;;39.75;17.35;;;;;;;;;;5017825;28;20045;-78
2022/01/16 09:09:00;;;;;;;33.35;17.05;;;;;;;;;;5018426;28;20046;-78
2022/01/16 09:11:28;;;;;;;30.98;17.67;;;;;;;;;;5014373;28;20096;-78
2022/01/16 09:13:58;;;;;;;31.27;16.58;;;;;;;;;;5017981;28;20057;-78
2022/01/16 09:16:26;;;;;;;31.52;16.48;;;;;;;;;;5022361;28;20060;-79
2022/01/16 09:18:53;;;;;;;35.28;18.55;;;;;;;;;;5019564;28;20112;-79
2022/01/16 09:21:20;;;;;;;35.95;19.20;;;;;;;;;;5018905;28;20652;-79
2022/01/16 09:23:50;;;;;;;34.30;19.63;;;;;;;;;;5013717;28;20108;-77
2022/01/16 09:26:17;;;;;;;36.70;18.35;;;;;;;;;;5012741;28;20050;-78
2022/01/16 09:28:45;;;;;;;36.28;18.67;;;;;;;;;;5012312;28;20054;-78
2022/01/16 09:31:12;;;;;;;35.42;18.70;;;;;;;;;;5015105;28;20085;-78
2022/01/16 09:33:39;;;;;;;36.67;18.95;;;;;;;;;;5017809;28;20046;-77
2022/01/16 09:36:08;;;;;;;39.70;18.88;;;;;;;;;;5017080;28;20049;-78
2022/01/16 09:38:36;;;;;;;38.47;19.02;;;;;;;;;;5017235;28;20153;-79
2022/01/16 09:41:05;;;;;;;35.50;19.35;;;;;;;;;;5018247;28;20042;-79
2022/01/16 09:43:33;;;;;;;36.38;18.55;;;;;;;;;;5018042;28;20050;-80
2022/01/16 09:46:00;;;;;;;38.28;20.02;;;;;;;;;;5017940;28;20045;-79
2022/01/16 09:48:27;;;;;;;35.67;18.45;;;;;;;;;;5018358;28;20046;-79
2022/01/16 09:50:54;;;;;;;31.48;18.02;;;;;;;;;;5018415;28;20046;-79
2022/01/16 09:53:21;;;;;;;34.90;17.52;;;;;;;;;;5026143;28;20038;-78
2022/01/16 09:55:49;;;;;;;31.10;17.63;;;;;;;;;;5035551;28;20040;-78
2022/01/16 09:58:17;;;;;;;33.88;17.48;;;;;;;;;;5026685;28;20085;-79
2022/01/16 10:00:44;;;;;;;35.83;17.63;;;;;;;;;;5019046;28;20124;-80
2022/01/16 10:03:31;;;;;;;35.00;17.25;;;;;;;;;;5017886;28;20157;-78
2022/01/16 10:06:09;;;;;;;35.22;17.90;;;;;;;;;;5016682;28;20057;-79
2022/01/16 10:08:38;;;;;;;32.20;16.35;;;;;;;;;;5017496;28;20060;-79
2022/01/16 10:11:24;;;;;;;30.40;15.77;;;;;;;;;;5020202;28;20054;-79
2022/01/16 10:14:00;;;;;;;33.85;16.58;;;;;;;;;;5022237;28;20073;-78
2022/01/16 10:16:29;;;;;;;27.92;14.10;;;;;;;;;;5023051;28;20053;-78
2022/01/16 10:18:56;;;;;;;25.20;13.05;;;;;;;;;;5022378;28;20409;-80
2022/01/16 10:21:35;;;;;;;25.10;13.20;;;;;;;;;;5019789;28;20535;-77
2022/01/16 10:24:16;;;;;;;23.80;13.80;;;;;;;;;;5020125;28;20053;-78
2022/01/16 10:26:43;;;;;;;23.08;13.15;;;;;;;;;;5019737;28;20045;-78
2022/01/16 10:29:16;;;;;;;24.30;13.27;;;;;;;;;;5017620;28;20042;-78
2022/01/16 10:31:44;;;;;;;24.10;12.23;;;;;;;;;;5022319;28;20079;-78
2022/01/16 10:34:31;;;;;;;24.75;12.88;;;;;;;;;;5020219;28;20145;-78
2022/01/16 10:36:59;;;;;;;22.60;13.18;;;;;;;;;;5017666;28;20065;-77
2022/01/16 10:39:26;;;;;;;22.83;12.95;;;;;;;;;;5019423;28;20046;-78
2022/01/16 10:42:15;;;;;;;23.10;12.52;;;;;;;;;;5020578;28;20042;-78
2022/01/16 10:44:45;;;;;;;21.10;12.07;;;;;;;;;;5020121;28;20053;-78
2022/01/16 10:47:33;;;;;;;26.08;13.25;;;;;;;;;;5017462;28;20050;-77
2022/01/16 10:50:10;;;;;;;24.58;13.75;;;;;;;;;;5017146;28;20050;-77
2022/01/16 10:53:03;;;;;;;24.67;12.75;;;;;;;;;;5019793;28;20046;-78
2022/01/16 10:55:36;;;;;;;25.23;13.30;;;;;;;;;;5009491;28;20100;-78
2022/01/16 10:58:06;;;;;;;18.50;11.13;;;;;;;;;;5016891;28;20046;-77
2022/01/16 11:00:35;;;;;;;24.60;12.38;;;;;;;;;;5018947;28;20411;-80
2022/01/16 11:03:05;;;;;;;20.48;11.75;;;;;;;;;;5017239;28;20113;-77
2022/01/16 11:05:36;;;;;;;21.83;11.67;;;;;;;;;;5019716;28;20108;-78
2022/01/16 11:08:05;;;;;;;22.42;12.32;;;;;;;;;;5018619;28;20295;-78
2022/01/16 11:10:33;;;;;;;22.35;12.48;;;;;;;;;;5017579;28;20046;-81
2022/01/16 11:13:02;;;;;;;20.73;12.50;;;;;;;;;;5016975;28;20053;-77
2022/01/16 11:15:30;;;;;;;25.58;12.73;;;;;;;;;;5015132;28;20141;-77
2022/01/16 11:17:58;;;;;;;25.45;12.68;;;;;;;;;;5015186;28;20042;-77
2022/01/16 11:20:33;;;;;;;24.50;13.02;;;;;;;;;;5015655;28;20058;-78
2022/01/16 11:23:06;;;;;;;19.40;11.40;;;;;;;;;;5014451;28;20046;-77
2022/01/16 11:25:36;;;;;;;23.45;12.35;;;;;;;;;;5014658;28;20057;-77
2022/01/16 11:28:12;;;;;;;21.00;11.85;;;;;;;;;;5014379;28;20138;-78
2022/01/16 11:30:43;;;;;;;21.90;11.73;;;;;;;;;;5014989;28;20050;-77
2022/01/16 11:33:12;;;;;;;22.25;11.55;;;;;;;;;;5015659;28;20077;-78
2022/01/16 11:35:45;;;;;;;22.98;12.07;;;;;;;;;;5020121;28;20119;-78
2022/01/16 11:38:12;;;;;;;18.75;10.77;;;;;;;;;;5008872;28;21414;-78
2022/01/16 11:40:45;;;;;;;22.05;11.77;;;;;;;;;;5018426;28;20047;-77
2022/01/16 11:43:37;;;;;;;18.27;11.20;;;;;;;;;;5017736;28;20046;-77
2022/01/16 11:46:15;;;;;;;21.27;11.68;;;;;;;;;;5007381;28;20104;-78
2022/01/16 11:48:50;;;;;;;22.73;12.57;;;;;;;;;;5007755;28;20113;-78
2022/01/16 11:52:02;;;;;;;21.85;11.80;;;;;;;;;;5015856;28;20046;-79
2022/01/16 11:54:37;;;;;;;21.95;11.93;;;;;;;;;;5013317;28;20125;-77
2022/01/16 11:57:19;;;;;;;22.50;11.10;;;;;;;;;;5011041;28;20508;-77
2022/01/16 11:59:47;;;;;;;23.77;12.90;;;;;;;;;;5015491;28;20104;-78
2022/01/16 12:02:23;;;;;;;23.25;12.00;;;;;;;;;;5011479;28;20100;-77
2022/01/16 12:05:09;;;;;;;25.23;13.27;;;;;;;;;;5004420;28;20080;-77
2022/01/16 12:07:51;;;;;;;22.60;12.02;;;;;;;;;;5004546;28;20065;-78
2022/01/16 12:10:41;;;;;;;19.25;11.55;;;;;;;;;;5007664;28;20840;-78
2022/01/16 12:13:43;;;;;;;24.20;12.13;;;;;;;;;;5008093;28;20037;-77
2022/01/16 12:16:46;;;;;;;25.17;11.98;;;;;;;;;;5008001;28;20041;-79
2022/01/16 12:19:43;;;;;;;20.45;11.52;;;;;;;;;;5011769;28;20053;-78
2022/01/16 12:22:17;;;;;;;22.60;13.65;;;;;;;;;;5002818;28;20519;-78
2022/01/16 12:24:50;;;;;;;19.65;11.38;;;;;;;;;;5004982;28;20093;-77
2022/01/16 12:27:39;;;;;;;26.48;13.15;;;;;;;;;;5003764;28;20052;-77
2022/01/16 12:30:26;;;;;;;20.52;11.65;;;;;;;;;;5006114;28;20129;-77
2022/01/16 12:32:55;;;;;;;23.55;12.30;;;;;;;;;;5005281;28;20102;-77
2022/01/16 12:36:10;;;;;;;20.63;11.40;;;;;;;;;;5005614;28;20081;-77
2022/01/16 12:39:04;;;;;;;23.02;11.35;;;;;;;;;;5005319;28;20050;-77
2022/01/16 12:41:39;;;;;;;24.77;12.25;;;;;;;;;;4999829;28;20428;-77
2022/01/16 12:44:07;;;;;;;20.45;11.23;;;;;;;;;;5001886;28;20133;-77
2022/01/16 12:46:37;;;;;;;21.92;12.57;;;;;;;;;;5002827;28;20100;-77
2022/01/16 12:49:06;;;;;;;21.50;11.32;;;;;;;;;;5009052;28;20511;-77
2022/01/16 12:51:36;;;;;;;24.58;11.55;;;;;;;;;;5006056;28;20100;-77
2022/01/16 12:54:12;;;;;;;20.15;12.10;;;;;;;;;;5004678;28;20061;-77
2022/01/16 12:56:42;;;;;;;19.77;11.05;;;;;;;;;;5003948;28;20049;-79
2022/01/16 12:59:13;;;;;;;20.83;12.02;;;;;;;;;;5002647;28;20050;-77
2022/01/16 13:01:45;;;;;;;24.67;12.70;;;;;;;;;;5004183;28;20038;-77
2022/01/16 13:04:26;;;;;;;21.88;11.55;;;;;;;;;;4996295;28;20097;-77
2022/01/16 13:06:53;;;;;;;22.45;11.95;;;;;;;;;;4998671;28;20046;-77
2022/01/16 13:09:22;;;;;;;23.05;12.25;;;;;;;;;;4999774;28;20101;-78
2022/01/16 13:11:50;;;;;;;22.40;12.07;;;;;;;;;;5013385;28;20073;-77
2022/01/16 13:14:19;;;;;;;19.98;10.52;;;;;;;;;;5030720;28;20052;-77
2022/01/16 13:16:47;;;;;;;21.67;12.68;;;;;;;;;;4996382;28;20109;-77
2022/01/16 13:19:18;;;;;;;22.58;12.00;;;;;;;;;;4992526;28;20105;-77
2022/01/16 13:21:59;;;;;;;22.67;12.32;;;;;;;;;;4991666;28;20046;-75
2022/01/16 13:24:36;;;;;;;23.48;12.38;;;;;;;;;;4990879;28;20517;-76
2022/01/16 13:27:06;;;;;;;19.35;11.95;;;;;;;;;;4990868;28;20141;-77
2022/01/16 13:29:36;;;;;;;21.00;11.52;;;;;;;;;;4991121;28;20125;-77
2022/01/16 13:32:04;;;;;;;19.92;11.40;;;;;;;;;;4992144;28;20070;-76
2022/01/16 13:34:50;;;;;;;20.95;11.07;;;;;;;;;;5001404;28;20053;-77
2022/01/16 13:37:21;;;;;;;18.10;11.27;;;;;;;;;;5015453;28;20075;-78
2022/01/16 13:39:51;;;;;;;23.00;12.77;;;;;;;;;;5013265;28;20120;-76
2022/01/16 13:42:28;;;;;;;20.38;12.00;;;;;;;;;;5013188;28;20038;-77
2022/01/16 13:45:17;;;;;;;21.30;11.05;;;;;;;;;;5015601;28;20057;-78
2022/01/16 13:47:51;;;;;;;20.42;11.63;;;;;;;;;;5001658;28;20054;-78
2022/01/16 13:50:18;;;;;;;19.27;11.00;;;;;;;;;;5003123;28;20081;-78
2022/01/16 13:52:52;;;;;;;18.92;10.88;;;;;;;;;;5019863;28;20060;-78
2022/01/16 13:55:21;;;;;;;21.40;11.82;;;;;;;;;;5018395;28;20125;-78
2022/01/16 13:57:48;;;;;;;19.83;11.35;;;;;;;;;;5013076;28;20072;-78
2022/01/16 14:00:15;;;;;;;21.77;11.80;;;;;;;;;;5000288;28;20046;-78
2022/01/16 14:02:42;;;;;;;17.48;10.27;;;;;;;;;;4997116;28;20101;-77
2022/01/16 14:05:10;;;;;;;20.08;12.27;;;;;;;;;;5004671;28;20073;-78
2022/01/16 14:07:36;;;;;;;20.20;11.77;;;;;;;;;;5018901;28;20054;-78
2022/01/16 14:10:03;;;;;;;20.23;12.13;;;;;;;;;;5019547;28;20103;-78
2022/01/16 14:12:32;;;;;;;20.33;12.35;;;;;;;;;;5016854;28;20045;-78
2022/01/16 14:14:59;;;;;;;22.10;12.77;;;;;;;;;;5016325;28;20065;-78
2022/01/16 14:20:46;;;;;;;20.10;11.38;;;;;;;;;;5015570;28;20042;-77
2022/01/16 14:23:13;;;;;;;24.55;12.68;;;;;;;;;;5016370;28;20077;-78
2022/01/16 14:25:40;;;;;;;21.52;12.90;;;;;;;;;;5019265;28;20060;-79
2022/01/16 14:28:08;;;;;;;23.92;13.65;;;;;;;;;;5017519;28;20415;-77
2022/01/16 14:30:35;;;;;;;21.42;12.50;;;;;;;;;;5017918;28;20050;-77
2022/01/16 14:33:02;;;;;;;21.83;12.20;;;;;;;;;;5017957;28;20068;-79
2022/01/16 14:35:29;;;;;;;24.65;12.77;;;;;;;;;;5018321;28;20138;-78
2022/01/16 14:37:55;;;;;;;20.60;11.88;;;;;;;;;;5014918;28;20069;-78
2022/01/16 14:40:22;;;;;;;24.60;12.05;;;;;;;;;;5015273;28;20050;-77
2022/01/16 14:42:57;;;;;;;21.40;12.52;;;;;;;;;;5014288;28;20083;-77
2022/01/16 14:45:25;;;;;;;21.05;11.40;;;;;;;;;;5014807;28;20425;-77
2022/01/16 14:47:52;;;;;;;19.63;11.02;;;;;;;;;;5016008;28;20106;-80
2022/01/16 14:50:20;;;;;;;21.40;12.27;;;;;;;;;;5031365;28;20049;-78
2022/01/16 14:52:47;;;;;;;22.15;12.07;;;;;;;;;;5028592;28;20568;-77
2022/01/16 14:55:16;;;;;;;24.52;13.40;;;;;;;;;;5016317;28;20108;-78
2022/01/16 14:57:44;;;;;;;22.83;12.93;;;;;;;;;;5012812;28;20074;-77
2022/01/16 15:00:12;;;;;;;22.65;12.30;;;;;;;;;;5016557;28;20046;-78
2022/01/16 15:02:41;;;;;;;21.25;12.55;;;;;;;;;;5001588;28;20056;-77
2022/01/16 15:05:11;;;;;;;25.13;13.93;;;;;;;;;;5018132;28;20058;-76
2022/01/16 15:07:40;;;;;;;27.92;17.13;;;;;;;;;;5014571;28;20077;-79
2022/01/16 15:10:10;;;;;;;27.90;16.27;;;;;;;;;;5014620;28;20049;-77
2022/01/16 15:12:37;;;;;;;28.23;14.97;;;;;;;;;;5001673;28;20041;-77
2022/01/16 15:15:07;;;;;;;25.80;12.88;;;;;;;;;;5017984;28;20062;-77
2022/01/16 15:17:41;;;;;;;24.38;13.32;;;;;;;;;;5050022;23;20045;-65
2022/01/16 15:20:17;;;;;;;24.30;13.73;;;;;;;;;;5032926;28;20502;-65